Aérodrome :
LOGIN :

S'inscrire | Disclaimer

   EN    FR    IT 

 










Légende :    VFR   VFR Marginal   IFR   IFR Intensif   IFR Très Intensif
Visi : 
Plafond : 
>= 8 km
>= 3000ft
5 à 8 km
1000 à 3000 ft
1500m à 5 km
500 à 1000 ft
800 à 1500m
200 à 500 ft
< 800m
< 200 ft
Symboles :   Orages  Brouillard  Fortes neiges  Fortes précipitations  Vent > 20 kt
SIGMETs :   Divers  Orages  Givrage  Turbulence  Onde Orograph.  Cendres Volcan.







- Altitude de l'aérodrome : 87 ft
- Code IATA : FSC
- Voir les cartes d'approche


LFKF - Figari

DERNIER METAR :
  • 181200Z AUTO 09014KT 050V130 CAVOK 20/10 Q1020 BECMG 07015G25KT

METARs EXPIRÉS :
  • 181130Z AUTO 08015KT 040V110 CAVOK 19/10 Q1020 BECMG 07015G25KT
  • 181100Z AUTO 08014KT 050V110 CAVOK 19/10 Q1020 BECMG 07015G25KT
  • 181030Z AUTO 08012G23KT 030V120 CAVOK 19/10 Q1021 NOSIG
  • 181000Z AUTO 09013G23KT 050V120 CAVOK 19/12 Q1021 NOSIG
  • 180930Z AUTO 08011KT 040V120 CAVOK 19/10 Q1021 BECMG 07015G25KT

TAF TAF LFKF
Valide du 18 à 09h jusqu'au 19 à 09h UTC


180800Z 1809/1909 07015G25KT CAVOK
Pas de NOTAMs connus pour ce terrain.
1 SIGMET publié pour la FIR Marseille (LFMM) :
 
Turbulence forte
LFMM SIGMET 2 VALID 180900/181300 LFPW
LFMM MARSEILLE FIR/UIR SEV TURB FCST WI N4300 E00230 - N4430 E00245 - N4530 E00430 - N4500 E00445 - N4300 E00230 SFC/FL060 STNR NC=



MET'MAP, la Météo Aéronautique d'un coup d'oeil ! - Copyright ORBIFLY Décembre 2007 - Disclaimer

ORBIFLY MET'MAP TEAM :

Programmation & Développement : Alexandra Zaïnal
Conception & Développement : Baudouin d'Aumeries
Co-Programmation & Développement : Marc-Olivier Méhu
Soutien technique & logistique : Manuel Goepfert

Contact : metmap@orbifly.com




SOURCES & CREDITS :

   NOAA